sensor_id;sensor_type;location;lat;lon;timestamp;P1;durP1;ratioP1;P2;durP2;ratioP2
51489;SDS011;57752;53.574;9.736;2023-03-01T00:03:19;21.90;;;10.68;;
51489;SDS011;57752;53.574;9.736;2023-03-01T00:08:19;23.58;;;10.60;;
51489;SDS011;57752;53.574;9.736;2023-03-01T00:13:19;18.35;;;8.75;;
51489;SDS011;57752;53.574;9.736;2023-03-01T00:18:19;22.63;;;10.88;;
51489;SDS011;57752;53.574;9.736;2023-03-01T00:23:20;19.60;;;10.25;;
51489;SDS011;57752;53.574;9.736;2023-03-01T00:28:20;20.60;;;10.20;;
51489;SDS011;57752;53.574;9.736;2023-03-01T00:33:20;20.87;;;10.53;;
51489;SDS011;57752;53.574;9.736;2023-03-01T00:38:20;20.10;;;10.32;;
51489;SDS011;57752;53.574;9.736;2023-03-01T00:43:21;20.48;;;10.60;;
51489;SDS011;57752;53.574;9.736;2023-03-01T00:48:21;18.70;;;9.82;;
51489;SDS011;57752;53.574;9.736;2023-03-01T00:53:21;19.65;;;10.00;;
51489;SDS011;57752;53.574;9.736;2023-03-01T00:58:21;21.67;;;10.45;;
51489;SDS011;57752;53.574;9.736;2023-03-01T01:03:22;21.23;;;9.88;;
51489;SDS011;57752;53.574;9.736;2023-03-01T01:13:24;22.73;;;9.85;;
51489;SDS011;57752;53.574;9.736;2023-03-01T01:18:24;20.70;;;10.02;;
51489;SDS011;57752;53.574;9.736;2023-03-01T01:23:24;20.80;;;10.55;;
51489;SDS011;57752;53.574;9.736;2023-03-01T01:28:24;22.95;;;10.35;;
51489;SDS011;57752;53.574;9.736;2023-03-01T01:33:25;23.13;;;9.98;;
51489;SDS011;57752;53.574;9.736;2023-03-01T01:38:25;21.40;;;9.88;;
51489;SDS011;57752;53.574;9.736;2023-03-01T01:43:29;19.02;;;9.88;;
51489;SDS011;57752;53.574;9.736;2023-03-01T01:48:50;19.60;;;10.13;;
51489;SDS011;57752;53.574;9.736;2023-03-01T01:53:53;22.48;;;10.68;;
51489;SDS011;57752;53.574;9.736;2023-03-01T01:58:54;20.52;;;10.68;;
51489;SDS011;57752;53.574;9.736;2023-03-01T02:03:55;19.75;;;9.90;;
51489;SDS011;57752;53.574;9.736;2023-03-01T02:08:57;22.42;;;10.07;;
51489;SDS011;57752;53.574;9.736;2023-03-01T02:13:59;22.15;;;10.43;;
51489;SDS011;57752;53.574;9.736;2023-03-01T02:18:59;22.20;;;11.63;;
51489;SDS011;57752;53.574;9.736;2023-03-01T02:24:10;22.25;;;10.10;;
51489;SDS011;57752;53.574;9.736;2023-03-01T02:29:15;25.98;;;11.38;;
51489;SDS011;57752;53.574;9.736;2023-03-01T02:34:16;23.63;;;10.38;;
51489;SDS011;57752;53.574;9.736;2023-03-01T02:39:18;26.00;;;11.05;;
51489;SDS011;57752;53.574;9.736;2023-03-01T02:44:20;26.10;;;12.07;;
51489;SDS011;57752;53.574;9.736;2023-03-01T02:49:31;22.92;;;11.63;;
51489;SDS011;57752;53.574;9.736;2023-03-01T02:59:35;25.98;;;11.95;;
51489;SDS011;57752;53.574;9.736;2023-03-01T03:04:39;23.85;;;10.95;;
51489;SDS011;57752;53.574;9.736;2023-03-01T03:09:39;24.70;;;10.93;;
51489;SDS011;57752;53.574;9.736;2023-03-01T03:14:39;20.23;;;10.18;;
51489;SDS011;57752;53.574;9.736;2023-03-01T03:19:39;18.90;;;9.57;;
51489;SDS011;57752;53.574;9.736;2023-03-01T03:24:39;25.13;;;11.68;;
51489;SDS011;57752;53.574;9.736;2023-03-01T03:29:39;20.15;;;10.32;;
51489;SDS011;57752;53.574;9.736;2023-03-01T03:34:40;23.83;;;11.23;;
51489;SDS011;57752;53.574;9.736;2023-03-01T03:39:40;21.60;;;11.43;;
51489;SDS011;57752;53.574;9.736;2023-03-01T03:44:40;26.05;;;10.05;;
51489;SDS011;57752;53.574;9.736;2023-03-01T03:49:40;22.90;;;9.82;;
51489;SDS011;57752;53.574;9.736;2023-03-01T03:54:40;19.58;;;9.93;;
51489;SDS011;57752;53.574;9.736;2023-03-01T03:59:40;22.45;;;10.30;;
51489;SDS011;57752;53.574;9.736;2023-03-01T04:04:40;21.77;;;9.88;;
51489;SDS011;57752;53.574;9.736;2023-03-01T04:09:41;22.60;;;10.40;;
51489;SDS011;57752;53.574;9.736;2023-03-01T04:14:42;24.67;;;9.98;;
51489;SDS011;57752;53.574;9.736;2023-03-01T04:19:42;23.55;;;11.15;;
51489;SDS011;57752;53.574;9.736;2023-03-01T04:24:44;23.67;;;10.82;;
51489;SDS011;57752;53.574;9.736;2023-03-01T04:29:44;20.10;;;10.02;;
51489;SDS011;57752;53.574;9.736;2023-03-01T04:34:44;24.20;;;10.95;;
51489;SDS011;57752;53.574;9.736;2023-03-01T04:39:44;22.55;;;11.38;;
51489;SDS011;57752;53.574;9.736;2023-03-01T04:44:47;22.85;;;10.77;;
51489;SDS011;57752;53.574;9.736;2023-03-01T04:49:51;20.35;;;10.10;;
51489;SDS011;57752;53.574;9.736;2023-03-01T04:54:51;21.20;;;10.45;;
51489;SDS011;57752;53.574;9.736;2023-03-01T04:59:51;23.55;;;11.52;;
51489;SDS011;57752;53.574;9.736;2023-03-01T05:04:51;21.15;;;11.00;;
51489;SDS011;57752;53.574;9.736;2023-03-01T05:09:51;21.23;;;10.37;;
51489;SDS011;57752;53.574;9.736;2023-03-01T05:14:52;21.08;;;10.10;;
51489;SDS011;57752;53.574;9.736;2023-03-01T05:19:52;19.85;;;9.98;;
51489;SDS011;57752;53.574;9.736;2023-03-01T05:24:55;22.27;;;11.57;;
51489;SDS011;57752;53.574;9.736;2023-03-01T05:29:56;21.33;;;10.13;;
51489;SDS011;57752;53.574;9.736;2023-03-01T05:34:56;21.30;;;10.15;;
51489;SDS011;57752;53.574;9.736;2023-03-01T05:39:56;23.67;;;10.45;;
51489;SDS011;57752;53.574;9.736;2023-03-01T05:44:56;20.98;;;10.45;;
51489;SDS011;57752;53.574;9.736;2023-03-01T05:49:56;23.58;;;10.43;;
51489;SDS011;57752;53.574;9.736;2023-03-01T05:54:56;18.50;;;9.32;;
51489;SDS011;57752;53.574;9.736;2023-03-01T05:59:57;19.73;;;9.93;;
51489;SDS011;57752;53.574;9.736;2023-03-01T06:04:57;20.30;;;10.35;;
51489;SDS011;57752;53.574;9.736;2023-03-01T06:09:58;21.98;;;9.50;;
51489;SDS011;57752;53.574;9.736;2023-03-01T06:14:58;20.60;;;10.90;;
51489;SDS011;57752;53.574;9.736;2023-03-01T06:19:58;20.17;;;9.43;;
51489;SDS011;57752;53.574;9.736;2023-03-01T06:24:59;21.17;;;9.93;;
51489;SDS011;57752;53.574;9.736;2023-03-01T06:29:59;20.65;;;9.27;;
51489;SDS011;57752;53.574;9.736;2023-03-01T06:34:59;19.25;;;9.93;;
51489;SDS011;57752;53.574;9.736;2023-03-01T06:39:59;18.55;;;9.18;;
51489;SDS011;57752;53.574;9.736;2023-03-01T06:44:59;20.42;;;9.82;;
51489;SDS011;57752;53.574;9.736;2023-03-01T06:50:00;19.90;;;9.43;;
51489;SDS011;57752;53.574;9.736;2023-03-01T06:55:00;20.35;;;9.80;;
51489;SDS011;57752;53.574;9.736;2023-03-01T07:00:01;18.85;;;9.15;;
51489;SDS011;57752;53.574;9.736;2023-03-01T07:05:01;20.08;;;9.20;;
51489;SDS011;57752;53.574;9.736;2023-03-01T07:10:01;20.90;;;9.52;;
51489;SDS011;57752;53.574;9.736;2023-03-01T07:15:01;19.88;;;9.50;;
51489;SDS011;57752;53.574;9.736;2023-03-01T07:20:02;19.77;;;10.00;;
51489;SDS011;57752;53.574;9.736;2023-03-01T07:25:02;20.35;;;9.20;;
51489;SDS011;57752;53.574;9.736;2023-03-01T07:30:02;17.65;;;8.63;;
51489;SDS011;57752;53.574;9.736;2023-03-01T07:35:02;20.58;;;10.27;;
51489;SDS011;57752;53.574;9.736;2023-03-01T07:40:03;21.63;;;10.30;;
51489;SDS011;57752;53.574;9.736;2023-03-01T07:45:04;24.48;;;10.80;;
51489;SDS011;57752;53.574;9.736;2023-03-01T07:50:05;20.27;;;9.60;;
51489;SDS011;57752;53.574;9.736;2023-03-01T07:55:05;23.48;;;11.18;;
51489;SDS011;57752;53.574;9.736;2023-03-01T08:00:06;24.02;;;11.43;;
51489;SDS011;57752;53.574;9.736;2023-03-01T08:05:06;21.20;;;12.10;;
51489;SDS011;57752;53.574;9.736;2023-03-01T08:10:07;20.83;;;10.98;;
51489;SDS011;57752;53.574;9.736;2023-03-01T08:15:07;25.67;;;13.05;;
51489;SDS011;57752;53.574;9.736;2023-03-01T08:20:08;27.40;;;14.90;;
51489;SDS011;57752;53.574;9.736;2023-03-01T08:25:09;38.97;;;17.85;;
51489;SDS011;57752;53.574;9.736;2023-03-01T08:30:10;34.03;;;16.58;;
51489;SDS011;57752;53.574;9.736;2023-03-01T08:35:10;31.10;;;17.13;;
51489;SDS011;57752;53.574;9.736;2023-03-01T08:40:10;33.17;;;16.98;;
51489;SDS011;57752;53.574;9.736;2023-03-01T08:45:11;31.98;;;16.80;;
51489;SDS011;57752;53.574;9.736;2023-03-01T08:50:11;28.70;;;15.35;;
51489;SDS011;57752;53.574;9.736;2023-03-01T08:55:11;27.88;;;14.60;;
51489;SDS011;57752;53.574;9.736;2023-03-01T09:00:12;24.45;;;13.07;;
51489;SDS011;57752;53.574;9.736;2023-03-01T09:05:14;25.05;;;12.90;;
51489;SDS011;57752;53.574;9.736;2023-03-01T09:10:15;25.02;;;12.57;;
51489;SDS011;57752;53.574;9.736;2023-03-01T09:15:15;24.52;;;12.48;;
51489;SDS011;57752;53.574;9.736;2023-03-01T09:20:15;27.60;;;11.32;;
51489;SDS011;57752;53.574;9.736;2023-03-01T09:25:15;25.02;;;10.15;;
51489;SDS011;57752;53.574;9.736;2023-03-01T09:30:16;21.60;;;9.65;;
51489;SDS011;57752;53.574;9.736;2023-03-01T09:35:16;29.55;;;10.77;;
51489;SDS011;57752;53.574;9.736;2023-03-01T09:40:17;20.60;;;9.85;;
51489;SDS011;57752;53.574;9.736;2023-03-01T09:45:23;22.80;;;10.60;;
51489;SDS011;57752;53.574;9.736;2023-03-01T09:50:25;23.60;;;10.02;;
51489;SDS011;57752;53.574;9.736;2023-03-01T09:55:37;23.52;;;10.15;;
51489;SDS011;57752;53.574;9.736;2023-03-01T10:00:40;22.63;;;10.68;;
51489;SDS011;57752;53.574;9.736;2023-03-01T10:05:50;20.80;;;9.13;;
51489;SDS011;57752;53.574;9.736;2023-03-01T10:10:52;17.75;;;8.18;;
51489;SDS011;57752;53.574;9.736;2023-03-01T10:15:54;19.17;;;8.25;;
51489;SDS011;57752;53.574;9.736;2023-03-01T10:31:05;21.60;;;8.38;;
51489;SDS011;57752;53.574;9.736;2023-03-01T10:36:08;24.27;;;9.00;;
51489;SDS011;57752;53.574;9.736;2023-03-01T10:41:08;23.70;;;9.50;;
51489;SDS011;57752;53.574;9.736;2023-03-01T10:51:23;20.88;;;8.80;;
51489;SDS011;57752;53.574;9.736;2023-03-01T10:56:23;25.27;;;13.27;;
51489;SDS011;57752;53.574;9.736;2023-03-01T11:01:26;23.23;;;9.50;;
51489;SDS011;57752;53.574;9.736;2023-03-01T11:06:27;24.17;;;9.38;;
51489;SDS011;57752;53.574;9.736;2023-03-01T11:11:31;22.92;;;9.68;;
51489;SDS011;57752;53.574;9.736;2023-03-01T11:16:33;22.48;;;9.27;;
51489;SDS011;57752;53.574;9.736;2023-03-01T11:21:35;26.27;;;11.83;;
51489;SDS011;57752;53.574;9.736;2023-03-01T11:26:37;24.42;;;10.32;;
51489;SDS011;57752;53.574;9.736;2023-03-01T11:31:38;23.37;;;8.97;;
51489;SDS011;57752;53.574;9.736;2023-03-01T11:36:53;23.77;;;9.80;;
51489;SDS011;57752;53.574;9.736;2023-03-01T11:47:43;22.52;;;9.50;;
51489;SDS011;57752;53.574;9.736;2023-03-01T11:52:48;23.15;;;9.77;;
51489;SDS011;57752;53.574;9.736;2023-03-01T12:08:23;23.60;;;10.70;;
51489;SDS011;57752;53.574;9.736;2023-03-01T12:28:48;23.98;;;9.60;;
51489;SDS011;57752;53.574;9.736;2023-03-01T12:33:54;25.42;;;11.45;;
51489;SDS011;57752;53.574;9.736;2023-03-01T12:44:06;27.20;;;10.50;;
51489;SDS011;57752;53.574;9.736;2023-03-01T12:49:18;30.10;;;13.15;;
51489;SDS011;57752;53.574;9.736;2023-03-01T12:54:22;35.70;;;14.05;;
51489;SDS011;57752;53.574;9.736;2023-03-01T13:15:01;38.95;;;16.77;;
51489;SDS011;57752;53.574;9.736;2023-03-01T13:20:01;53.13;;;21.15;;
51489;SDS011;57752;53.574;9.736;2023-03-01T13:25:11;44.85;;;18.00;;
51489;SDS011;57752;53.574;9.736;2023-03-01T13:45:44;42.17;;;17.58;;
51489;SDS011;57752;53.574;9.736;2023-03-01T13:50:47;47.28;;;16.27;;
51489;SDS011;57752;53.574;9.736;2023-03-01T13:55:50;45.10;;;17.38;;
51489;SDS011;57752;53.574;9.736;2023-03-01T14:00:55;39.90;;;16.63;;
51489;SDS011;57752;53.574;9.736;2023-03-01T14:16:04;37.15;;;15.73;;
51489;SDS011;57752;53.574;9.736;2023-03-01T14:21:08;38.88;;;15.70;;
51489;SDS011;57752;53.574;9.736;2023-03-01T14:26:08;35.42;;;14.75;;
51489;SDS011;57752;53.574;9.736;2023-03-01T14:36:31;33.17;;;15.07;;
51489;SDS011;57752;53.574;9.736;2023-03-01T14:41:33;32.95;;;14.52;;
51489;SDS011;57752;53.574;9.736;2023-03-01T14:46:35;29.95;;;13.88;;
51489;SDS011;57752;53.574;9.736;2023-03-01T14:51:37;27.75;;;11.57;;
51489;SDS011;57752;53.574;9.736;2023-03-01T14:56:43;34.25;;;13.20;;
51489;SDS011;57752;53.574;9.736;2023-03-01T15:01:43;30.52;;;13.02;;
51489;SDS011;57752;53.574;9.736;2023-03-01T15:06:44;28.35;;;12.80;;
51489;SDS011;57752;53.574;9.736;2023-03-01T15:11:44;29.58;;;12.23;;
51489;SDS011;57752;53.574;9.736;2023-03-01T15:16:44;26.75;;;11.85;;
51489;SDS011;57752;53.574;9.736;2023-03-01T15:21:46;30.63;;;13.65;;
51489;SDS011;57752;53.574;9.736;2023-03-01T15:32:01;21.77;;;9.27;;
51489;SDS011;57752;53.574;9.736;2023-03-01T15:37:04;34.95;;;13.65;;
51489;SDS011;57752;53.574;9.736;2023-03-01T15:42:06;30.58;;;13.32;;
51489;SDS011;57752;53.574;9.736;2023-03-01T15:47:26;28.38;;;13.05;;
51489;SDS011;57752;53.574;9.736;2023-03-01T15:52:28;30.02;;;12.55;;
51489;SDS011;57752;53.574;9.736;2023-03-01T15:57:29;31.13;;;14.10;;
51489;SDS011;57752;53.574;9.736;2023-03-01T16:02:29;32.70;;;14.70;;
51489;SDS011;57752;53.574;9.736;2023-03-01T16:07:29;35.45;;;14.30;;
51489;SDS011;57752;53.574;9.736;2023-03-01T16:12:31;32.75;;;13.88;;
51489;SDS011;57752;53.574;9.736;2023-03-01T16:17:31;33.33;;;14.73;;
51489;SDS011;57752;53.574;9.736;2023-03-01T16:22:31;33.15;;;13.57;;
51489;SDS011;57752;53.574;9.736;2023-03-01T16:27:31;39.45;;;15.55;;
51489;SDS011;57752;53.574;9.736;2023-03-01T16:32:31;32.75;;;15.07;;
51489;SDS011;57752;53.574;9.736;2023-03-01T16:37:32;36.78;;;14.88;;
51489;SDS011;57752;53.574;9.736;2023-03-01T16:42:33;36.53;;;15.60;;
51489;SDS011;57752;53.574;9.736;2023-03-01T16:47:33;40.75;;;15.65;;
51489;SDS011;57752;53.574;9.736;2023-03-01T16:52:33;36.80;;;14.57;;
51489;SDS011;57752;53.574;9.736;2023-03-01T16:57:34;33.00;;;14.15;;
51489;SDS011;57752;53.574;9.736;2023-03-01T17:02:34;34.85;;;14.48;;
51489;SDS011;57752;53.574;9.736;2023-03-01T17:07:35;35.15;;;13.82;;
51489;SDS011;57752;53.574;9.736;2023-03-01T17:12:35;33.75;;;15.10;;
51489;SDS011;57752;53.574;9.736;2023-03-01T17:17:35;43.63;;;19.75;;
51489;SDS011;57752;53.574;9.736;2023-03-01T17:22:36;36.20;;;15.50;;
51489;SDS011;57752;53.574;9.736;2023-03-01T17:27:37;43.92;;;15.70;;
51489;SDS011;57752;53.574;9.736;2023-03-01T17:32:37;48.40;;;17.90;;
51489;SDS011;57752;53.574;9.736;2023-03-01T17:37:38;50.67;;;20.23;;
51489;SDS011;57752;53.574;9.736;2023-03-01T17:42:38;61.28;;;20.75;;
51489;SDS011;57752;53.574;9.736;2023-03-01T17:47:38;56.47;;;20.13;;
51489;SDS011;57752;53.574;9.736;2023-03-01T17:52:39;60.03;;;22.13;;
51489;SDS011;57752;53.574;9.736;2023-03-01T17:57:40;67.63;;;23.45;;
51489;SDS011;57752;53.574;9.736;2023-03-01T18:02:41;69.35;;;24.85;;
51489;SDS011;57752;53.574;9.736;2023-03-01T18:07:41;63.42;;;23.98;;
51489;SDS011;57752;53.574;9.736;2023-03-01T18:12:41;68.22;;;24.30;;
51489;SDS011;57752;53.574;9.736;2023-03-01T18:17:41;59.28;;;22.13;;
51489;SDS011;57752;53.574;9.736;2023-03-01T18:22:41;57.67;;;19.35;;
51489;SDS011;57752;53.574;9.736;2023-03-01T18:27:42;57.22;;;24.08;;
51489;SDS011;57752;53.574;9.736;2023-03-01T18:32:42;59.35;;;22.52;;
51489;SDS011;57752;53.574;9.736;2023-03-01T18:37:43;64.32;;;23.50;;
51489;SDS011;57752;53.574;9.736;2023-03-01T18:42:44;49.50;;;20.83;;
51489;SDS011;57752;53.574;9.736;2023-03-01T18:47:44;55.92;;;23.58;;
51489;SDS011;57752;53.574;9.736;2023-03-01T18:52:44;51.72;;;22.00;;
51489;SDS011;57752;53.574;9.736;2023-03-01T18:57:44;55.75;;;22.33;;
51489;SDS011;57752;53.574;9.736;2023-03-01T19:02:45;58.70;;;23.45;;
51489;SDS011;57752;53.574;9.736;2023-03-01T19:07:46;53.33;;;23.88;;
51489;SDS011;57752;53.574;9.736;2023-03-01T19:12:47;48.67;;;21.13;;
51489;SDS011;57752;53.574;9.736;2023-03-01T19:17:47;58.90;;;21.80;;
51489;SDS011;57752;53.574;9.736;2023-03-01T19:22:47;45.30;;;20.08;;
51489;SDS011;57752;53.574;9.736;2023-03-01T19:27:47;48.65;;;21.60;;
51489;SDS011;57752;53.574;9.736;2023-03-01T19:32:48;59.03;;;23.80;;
51489;SDS011;57752;53.574;9.736;2023-03-01T19:37:48;69.80;;;28.20;;
51489;SDS011;57752;53.574;9.736;2023-03-01T19:42:48;68.18;;;27.80;;
51489;SDS011;57752;53.574;9.736;2023-03-01T19:47:48;74.57;;;28.58;;
51489;SDS011;57752;53.574;9.736;2023-03-01T19:52:50;91.93;;;30.67;;
51489;SDS011;57752;53.574;9.736;2023-03-01T19:57:51;113.13;;;29.42;;
51489;SDS011;57752;53.574;9.736;2023-03-01T20:02:51;108.28;;;32.80;;
51489;SDS011;57752;53.574;9.736;2023-03-01T20:07:54;131.93;;;32.63;;
51489;SDS011;57752;53.574;9.736;2023-03-01T20:12:56;122.93;;;30.20;;
51489;SDS011;57752;53.574;9.736;2023-03-01T20:17:56;123.15;;;32.35;;
51489;SDS011;57752;53.574;9.736;2023-03-01T20:22:56;115.32;;;30.92;;
51489;SDS011;57752;53.574;9.736;2023-03-01T20:27:58;121.60;;;33.70;;
51489;SDS011;57752;53.574;9.736;2023-03-01T20:32:58;120.63;;;33.40;;
51489;SDS011;57752;53.574;9.736;2023-03-01T20:37:58;135.82;;;36.65;;
51489;SDS011;57752;53.574;9.736;2023-03-01T20:42:59;109.75;;;30.20;;
51489;SDS011;57752;53.574;9.736;2023-03-01T20:47:59;159.82;;;34.90;;
51489;SDS011;57752;53.574;9.736;2023-03-01T20:52:59;163.90;;;37.63;;
51489;SDS011;57752;53.574;9.736;2023-03-01T20:57:59;109.97;;;29.35;;
51489;SDS011;57752;53.574;9.736;2023-03-01T21:03:00;186.05;;;38.40;;
51489;SDS011;57752;53.574;9.736;2023-03-01T21:08:00;98.60;;;30.02;;
51489;SDS011;57752;53.574;9.736;2023-03-01T21:13:01;136.13;;;37.10;;
51489;SDS011;57752;53.574;9.736;2023-03-01T21:18:01;137.73;;;34.95;;
51489;SDS011;57752;53.574;9.736;2023-03-01T21:23:02;168.95;;;37.17;;
51489;SDS011;57752;53.574;9.736;2023-03-01T21:28:02;131.60;;;32.85;;
51489;SDS011;57752;53.574;9.736;2023-03-01T21:33:02;117.03;;;32.72;;
51489;SDS011;57752;53.574;9.736;2023-03-01T21:38:02;181.10;;;38.13;;
51489;SDS011;57752;53.574;9.736;2023-03-01T21:43:02;80.55;;;27.52;;
51489;SDS011;57752;53.574;9.736;2023-03-01T21:48:02;126.05;;;35.55;;
51489;SDS011;57752;53.574;9.736;2023-03-01T21:53:03;105.60;;;32.35;;
51489;SDS011;57752;53.574;9.736;2023-03-01T21:58:04;165.60;;;38.17;;
51489;SDS011;57752;53.574;9.736;2023-03-01T22:03:04;103.82;;;30.30;;
51489;SDS011;57752;53.574;9.736;2023-03-01T22:08:05;95.53;;;28.92;;
51489;SDS011;57752;53.574;9.736;2023-03-01T22:13:05;101.47;;;30.13;;
51489;SDS011;57752;53.574;9.736;2023-03-01T22:18:05;107.20;;;28.80;;
51489;SDS011;57752;53.574;9.736;2023-03-01T22:23:06;124.72;;;30.27;;
51489;SDS011;57752;53.574;9.736;2023-03-01T22:28:06;146.18;;;34.25;;
51489;SDS011;57752;53.574;9.736;2023-03-01T22:33:06;105.38;;;30.52;;
51489;SDS011;57752;53.574;9.736;2023-03-01T22:38:06;93.63;;;28.17;;
51489;SDS011;57752;53.574;9.736;2023-03-01T22:43:06;74.25;;;24.02;;
51489;SDS011;57752;53.574;9.736;2023-03-01T22:48:07;188.23;;;36.40;;
51489;SDS011;57752;53.574;9.736;2023-03-01T22:53:07;146.13;;;31.17;;
51489;SDS011;57752;53.574;9.736;2023-03-01T22:58:07;135.95;;;29.85;;
51489;SDS011;57752;53.574;9.736;2023-03-01T23:03:07;196.48;;;37.58;;
51489;SDS011;57752;53.574;9.736;2023-03-01T23:08:07;102.72;;;28.48;;
51489;SDS011;57752;53.574;9.736;2023-03-01T23:13:08;125.32;;;28.25;;
51489;SDS011;57752;53.574;9.736;2023-03-01T23:18:08;135.57;;;29.85;;
51489;SDS011;57752;53.574;9.736;2023-03-01T23:23:08;165.63;;;32.70;;
51489;SDS011;57752;53.574;9.736;2023-03-01T23:28:08;127.80;;;27.35;;
51489;SDS011;57752;53.574;9.736;2023-03-01T23:33:09;137.35;;;29.63;;
51489;SDS011;57752;53.574;9.736;2023-03-01T23:38:09;136.15;;;29.58;;
51489;SDS011;57752;53.574;9.736;2023-03-01T23:43:09;147.18;;;30.70;;
51489;SDS011;57752;53.574;9.736;2023-03-01T23:48:10;172.32;;;31.25;;
51489;SDS011;57752;53.574;9.736;2023-03-01T23:53:12;102.15;;;23.60;;
51489;SDS011;57752;53.574;9.736;2023-03-01T23:58:12;78.95;;;23.02;;
